Time;durP1;ratioP1;P1;durP2;ratioP2;P2;SDS_P1;SDS_P2;PMS_P1;PMS_P2;Temp;Humidity;BMP_temperature;BMP_pressure;BME280_temperature;BME280_humidity;BME280_pressure;Samples;Min_cycle;Max_cycle;Signal;HPM_P1;HPM_P2
2022/04/08 00:02:24;;;;;;;4.25;1.05;;;;;;;6.58;71.11;98152.75;7396898;19;20506;-66
2022/04/08 00:04:52;;;;;;;3.25;1.08;;;;;;;6.53;71.57;98154.72;7396967;19;20023;-66
2022/04/08 00:07:23;;;;;;;3.42;1.38;;;;;;;6.46;72.42;98153.34;7398636;19;20025;-65
2022/04/08 00:09:51;;;;;;;3.35;1.20;;;;;;;6.43;73.37;98176.91;7397357;19;20022;-65
2022/04/08 00:12:19;;;;;;;4.20;1.48;;;;;;;6.32;73.81;98169.59;7398789;19;20426;-65
2022/04/08 00:14:47;;;;;;;3.72;1.27;;;;;;;6.26;74.50;98177.69;7396770;19;20023;-65
2022/04/08 00:17:15;;;;;;;3.42;1.75;;;;;;;6.19;75.90;98175.38;7398422;19;20018;-65
2022/04/08 00:19:44;;;;;;;4.45;1.30;;;;;;;6.12;76.11;98186.13;7399663;19;20019;-65
2022/04/08 00:22:12;;;;;;;2.72;1.33;;;;;;;6.05;76.20;98185.53;7398832;19;20027;-66
2022/04/08 00:24:42;;;;;;;3.95;1.50;;;;;;;5.97;76.15;98227.47;7398560;19;20014;-65
2022/04/08 00:27:10;;;;;;;3.22;1.77;;;;;;;5.95;76.63;98179.00;7396784;19;20022;-65
2022/04/08 00:29:39;;;;;;;4.00;1.52;;;;;;;5.91;76.95;98178.28;7398635;19;20023;-65
2022/04/08 00:32:08;;;;;;;5.53;1.50;;;;;;;5.90;76.59;98189.63;7396744;19;20014;-66
2022/04/08 00:34:36;;;;;;;6.38;1.38;;;;;;;5.86;76.84;98181.13;7397254;19;20048;-65
2022/04/08 00:37:04;;;;;;;2.13;1.20;;;;;;;5.85;77.02;98194.16;7397914;19;20035;-65
2022/04/08 00:39:32;;;;;;;2.65;1.20;;;;;;;5.84;76.41;98213.31;7398245;19;20398;-66
2022/04/08 00:42:06;;;;;;;5.25;1.63;;;;;;;5.86;76.41;98206.28;7396011;19;20022;-66
2022/04/08 00:44:34;;;;;;;2.83;1.45;;;;;;;5.85;75.35;98200.25;7396489;19;20019;-66
2022/04/08 00:47:04;;;;;;;3.35;1.33;;;;;;;5.89;75.28;98200.97;7395805;19;20039;-66
2022/04/08 00:49:32;;;;;;;1.65;1.33;;;;;;;5.93;74.54;98218.13;7396315;19;20022;-66
2022/04/08 00:52:03;;;;;;;3.38;1.05;;;;;;;5.98;74.72;98200.56;7395540;19;20510;-66
2022/04/08 00:54:31;;;;;;;5.53;1.42;;;;;;;6.02;74.54;98217.75;7397571;19;20545;-66
2022/04/08 00:57:00;;;;;;;2.50;1.15;;;;;;;6.07;74.25;98224.53;7397396;19;20027;-66
2022/04/08 00:59:31;;;;;;;3.47;1.23;;;;;;;6.09;73.00;98210.53;7395673;19;20022;-66
2022/04/08 01:02:00;;;;;;;4.75;1.10;;;;;;;6.13;72.83;98245.94;7396003;19;20384;-66
2022/04/08 01:04:29;;;;;;;1.95;1.25;;;;;;;6.19;72.93;98247.41;7395583;19;20015;-66
2022/04/08 01:07:04;;;;;;;1.95;1.17;;;;;;;6.24;72.45;98270.63;7395226;19;20019;-66
2022/04/08 01:09:33;;;;;;;5.45;1.20;;;;;;;6.27;72.15;98292.19;7395293;19;20035;-66
2022/04/08 01:12:02;;;;;;;2.60;1.20;;;;;;;6.31;72.38;98285.09;7395467;19;20015;-66
2022/04/08 01:14:33;;;;;;;2.35;0.90;;;;;;;6.32;72.07;98308.47;7398222;19;20364;-67
2022/04/08 01:17:01;;;;;;;3.35;1.30;;;;;;;6.35;73.53;98297.91;7395912;19;20023;-66
2022/04/08 01:19:29;;;;;;;1.58;0.93;;;;;;;6.35;73.61;98313.53;7396983;19;20007;-66
2022/04/08 01:21:57;;;;;;;2.20;1.00;;;;;;;6.34;73.22;98353.53;7396865;19;20059;-66
2022/04/08 01:24:29;;;;;;;1.60;1.02;;;;;;;6.30;74.15;98356.31;7396465;19;20022;-66
2022/04/08 01:27:02;;;;;;;2.50;1.15;;;;;;;6.25;74.37;98351.28;7395231;19;20022;-67
2022/04/08 01:29:30;;;;;;;3.00;1.25;;;;;;;6.21;74.10;98352.34;7397093;19;20022;-67
2022/04/08 01:31:58;;;;;;;3.85;1.00;;;;;;;6.19;73.36;98348.94;7394644;19;20415;-66
2022/04/08 01:34:26;;;;;;;2.13;1.15;;;;;;;6.16;73.03;98351.69;7394805;19;20023;-66
2022/04/08 01:36:54;;;;;;;2.25;1.02;;;;;;;6.17;73.37;98369.00;7396184;19;20022;-67
2022/04/08 01:39:23;;;;;;;2.10;1.02;;;;;;;6.15;74.01;98355.19;7396083;19;20010;-67
2022/04/08 01:41:51;;;;;;;2.30;1.42;;;;;;;6.15;73.91;98373.41;7394317;19;20518;-67
2022/04/08 01:44:22;;;;;;;5.57;1.13;;;;;;;6.13;73.95;98373.50;7393217;19;20375;-67
2022/04/08 01:46:50;;;;;;;5.75;1.30;;;;;;;6.16;74.01;98372.53;7392888;19;20018;-68
2022/04/08 01:49:18;;;;;;;2.15;1.25;;;;;;;6.18;74.43;98388.94;7395559;19;20033;-66
2022/04/08 01:51:46;;;;;;;4.40;1.00;;;;;;;6.18;74.74;98386.34;7394131;19;20022;-67
2022/04/08 01:54:14;;;;;;;4.20;1.23;;;;;;;6.16;74.56;98388.13;7394237;19;20026;-67
2022/04/08 01:56:42;;;;;;;1.50;1.00;;;;;;;6.15;74.62;98392.47;7394127;19;20026;-66
2022/04/08 01:59:10;;;;;;;3.45;1.10;;;;;;;6.17;74.63;98389.84;7394160;19;20019;-65
2022/04/08 02:01:41;;;;;;;3.03;1.27;;;;;;;6.17;74.32;98390.66;7394316;19;20036;-65
2022/04/08 02:04:10;;;;;;;4.55;1.10;;;;;;;6.19;74.67;98421.84;7394367;19;20022;-67
2022/04/08 02:06:40;;;;;;;2.13;1.05;;;;;;;6.21;73.84;98434.81;7394543;19;20035;-65
2022/04/08 02:09:09;;;;;;;3.20;2.15;;;;;;;6.22;73.92;98424.34;7396002;19;20014;-65
2022/04/08 02:11:37;;;;;;;1.95;0.93;;;;;;;6.26;74.13;98422.47;7393402;19;20388;-66
2022/04/08 02:14:06;;;;;;;1.13;0.90;;;;;;;6.26;74.37;98428.50;7395363;19;20021;-65
2022/04/08 02:16:34;;;;;;;1.58;1.00;;;;;;;6.26;74.45;98438.09;7394861;19;20376;-65
2022/04/08 02:19:05;;;;;;;2.38;0.93;;;;;;;6.28;74.78;98442.31;7393882;19;20023;-66
2022/04/08 02:21:34;;;;;;;1.90;1.00;;;;;;;6.27;74.59;98455.38;7394471;19;20019;-66
2022/04/08 02:24:03;;;;;;;2.53;1.52;;;;;;;6.25;74.55;98441.59;7396189;19;20494;-65
2022/04/08 02:26:31;;;;;;;2.80;1.15;;;;;;;6.25;74.68;98460.66;7394239;19;20386;-65
2022/04/08 02:29:01;;;;;;;3.55;1.17;;;;;;;6.21;75.10;98459.09;7393084;19;20494;-66
2022/04/08 02:31:29;;;;;;;2.00;0.95;;;;;;;6.28;75.17;98459.69;7393160;19;20015;-65
2022/04/08 02:33:57;;;;;;;2.85;1.23;;;;;;;6.27;75.41;98464.06;7394483;19;20031;-65
2022/04/08 02:36:28;;;;;;;2.63;1.10;;;;;;;6.25;75.28;98480.66;7394519;19;20018;-65
2022/04/08 02:38:56;;;;;;;2.15;1.10;;;;;;;6.26;74.80;98474.53;7393068;19;20641;-65
2022/04/08 02:41:24;;;;;;;2.88;1.10;;;;;;;6.26;74.94;98466.72;7392670;19;20035;-65
2022/04/08 02:43:52;;;;;;;1.83;1.20;;;;;;;6.26;74.98;98493.59;7392594;19;20031;-65
2022/04/08 02:46:20;;;;;;;3.38;1.80;;;;;;;6.25;74.61;98471.06;7393267;19;20018;-65
2022/04/08 02:48:48;;;;;;;1.00;0.90;;;;;;;6.27;74.87;98490.09;7392037;19;20039;-64
2022/04/08 02:51:16;;;;;;;2.95;1.20;;;;;;;6.25;74.49;98502.31;7392428;19;20019;-65
2022/04/08 02:53:47;;;;;;;2.70;1.13;;;;;;;6.23;74.30;98519.78;7392341;19;20501;-64
2022/04/08 02:56:15;;;;;;;5.28;1.42;;;;;;;6.24;74.78;98497.19;7395166;19;20015;-67
2022/04/08 02:58:43;;;;;;;1.67;1.30;;;;;;;6.22;74.23;98507.66;7399207;19;20039;-66
2022/04/08 03:01:11;;;;;;;4.65;1.50;;;;;;;6.24;74.29;98494.56;7398778;19;20023;-64
2022/04/08 03:03:39;;;;;;;3.08;1.30;;;;;;;6.22;73.97;98512.88;7401554;19;20044;-64
2022/04/08 03:06:08;;;;;;;3.30;1.08;;;;;;;6.23;73.76;98522.38;7398593;19;20101;-65
2022/04/08 03:08:36;;;;;;;2.55;1.02;;;;;;;6.24;74.19;98538.84;7398799;19;20437;-64
2022/04/08 03:11:06;;;;;;;2.83;1.10;;;;;;;6.22;73.77;98525.91;7398527;19;20019;-64
2022/04/08 03:13:35;;;;;;;2.55;1.10;;;;;;;6.22;73.69;98525.91;7398938;19;20022;-64
2022/04/08 03:16:03;;;;;;;2.33;1.30;;;;;;;6.22;73.79;98541.50;7398182;19;20360;-65
2022/04/08 03:18:31;;;;;;;1.55;0.90;;;;;;;6.19;73.59;98536.41;7398945;19;20031;-64
2022/04/08 03:20:59;;;;;;;1.65;1.00;;;;;;;6.20;73.63;98551.13;7401105;19;20018;-65
2022/04/08 03:23:28;;;;;;;2.85;1.35;;;;;;;6.20;73.81;98540.72;7400970;19;20040;-65
2022/04/08 03:25:56;;;;;;;2.88;1.17;;;;;;;6.19;74.09;98545.09;7400615;19;20442;-66
2022/04/08 03:28:26;;;;;;;3.13;1.08;;;;;;;6.19;74.56;98562.44;7398152;19;20019;-65
2022/04/08 03:30:54;;;;;;;2.17;1.10;;;;;;;6.18;74.91;98563.38;7399706;19;20007;-65
2022/04/08 03:33:23;;;;;;;2.17;1.20;;;;;;;6.15;74.96;98556.50;7400253;19;20034;-65
2022/04/08 03:35:51;;;;;;;2.13;1.30;;;;;;;6.15;75.52;98564.31;7397864;19;20010;-66
2022/04/08 03:38:19;;;;;;;2.80;1.00;;;;;;;6.15;75.50;98589.53;7397235;19;20022;-65
2022/04/08 03:40:48;;;;;;;2.05;1.00;;;;;;;6.12;75.32;98600.91;7400251;19;20039;-66
2022/04/08 03:43:16;;;;;;;2.08;1.20;;;;;;;6.08;74.67;98598.47;7397715;19;20070;-66
2022/04/08 03:45:46;;;;;;;1.55;0.80;;;;;;;6.07;75.25;98586.38;7397922;19;20042;-64
2022/04/08 03:48:15;;;;;;;1.83;1.00;;;;;;;6.06;75.30;98603.72;7398782;19;20019;-65
2022/04/08 03:50:43;;;;;;;1.70;0.75;;;;;;;6.03;75.56;98607.31;7400373;19;20031;-65
2022/04/08 03:53:12;;;;;;;3.60;0.88;;;;;;;6.03;75.58;98602.09;7399038;19;20478;-65
2022/04/08 03:55:41;;;;;;;1.23;0.70;;;;;;;6.03;75.82;98593.44;7397458;19;20070;-65
2022/04/08 03:58:10;;;;;;;2.60;1.02;;;;;;;6.02;76.09;98644.66;7397633;19;20369;-64
2022/04/08 04:00:39;;;;;;;3.50;1.00;;;;;;;5.97;75.61;98643.94;7399447;19;20023;-64
2022/04/08 04:03:10;;;;;;;1.23;0.93;;;;;;;5.95;75.79;98617.13;7399687;19;20014;-64
2022/04/08 04:05:38;;;;;;;3.80;1.10;;;;;;;5.92;75.75;98622.44;7399926;19;20015;-65
2022/04/08 04:08:07;;;;;;;4.70;0.98;;;;;;;5.90;75.93;98636.41;7394102;19;20478;-66
2022/04/08 04:10:36;;;;;;;2.67;0.85;;;;;;;5.89;76.15;98630.38;7397090;19;20029;-65
2022/04/08 04:13:04;;;;;;;1.67;0.90;;;;;;;5.87;76.13;98645.19;7396404;19;20474;-65
2022/04/08 04:15:38;;;;;;;3.20;1.20;;;;;;;5.84;75.89;98673.94;7398956;19;20019;-66
2022/04/08 04:18:09;;;;;;;1.88;1.08;;;;;;;5.82;76.04;98657.50;7396231;19;20022;-66
2022/04/08 04:20:38;;;;;;;3.17;0.90;;;;;;;5.77;75.96;98669.84;7398811;19;20015;-66
2022/04/08 04:23:06;;;;;;;2.25;1.10;;;;;;;5.77;75.90;98672.44;7396440;19;20023;-65
2022/04/08 04:25:34;;;;;;;1.60;1.00;;;;;;;5.74;75.72;98685.53;7396580;19;20015;-67
2022/04/08 04:28:03;;;;;;;2.00;1.08;;;;;;;5.72;75.91;98693.41;7396196;19;20440;-65
2022/04/08 04:30:31;;;;;;;1.05;0.95;;;;;;;5.71;76.08;98692.56;7397675;19;20023;-65
2022/04/08 04:33:00;;;;;;;1.70;0.90;;;;;;;5.66;76.00;98711.81;7398181;19;20026;-65
2022/04/08 04:35:31;;;;;;;2.20;0.80;;;;;;;5.65;76.78;98686.72;7398403;19;20022;-65
2022/04/08 04:37:59;;;;;;;1.98;0.75;;;;;;;5.62;76.86;98692.03;7396438;19;20032;-65
2022/04/08 04:40:28;;;;;;;1.55;0.75;;;;;;;5.59;77.06;98710.34;7395696;19;20022;-64
2022/04/08 04:42:57;;;;;;;1.33;0.90;;;;;;;5.57;77.44;98728.59;7398133;19;20018;-65
2022/04/08 04:45:25;;;;;;;1.67;0.80;;;;;;;5.52;77.83;98722.69;7398075;19;20495;-65
2022/04/08 04:47:53;;;;;;;1.42;0.80;;;;;;;5.49;78.21;98717.63;7396143;19;20018;-65
2022/04/08 04:50:21;;;;;;;2.90;1.25;;;;;;;5.42;78.36;98729.97;7394996;19;20425;-65
2022/04/08 04:52:52;;;;;;;1.10;0.82;;;;;;;5.35;78.50;98741.47;7395301;19;20031;-65
2022/04/08 04:55:20;;;;;;;1.20;0.82;;;;;;;5.35;78.77;98759.69;7398260;19;20026;-65
2022/04/08 04:57:48;;;;;;;1.38;1.02;;;;;;;5.31;79.04;98766.72;7395520;19;20071;-65
2022/04/08 05:00:18;;;;;;;1.95;1.15;;;;;;;5.32;78.99;98758.03;7396209;19;20031;-65
2022/04/08 05:02:46;;;;;;;2.70;1.15;;;;;;;5.31;78.86;98778.88;7394920;19;20494;-65
2022/04/08 05:05:15;;;;;;;2.30;1.42;;;;;;;5.27;79.00;98783.34;7396827;19;20014;-65
2022/04/08 05:07:44;;;;;;;1.75;1.20;;;;;;;5.31;79.22;98792.72;7394862;19;20046;-65
2022/04/08 05:10:15;;;;;;;2.08;1.05;;;;;;;5.29;79.81;98789.31;7394949;19;20036;-66
2022/04/08 05:12:43;;;;;;;3.78;1.52;;;;;;;5.31;80.19;98802.28;7394409;19;20035;-64
2022/04/08 05:15:12;;;;;;;2.85;1.42;;;;;;;5.25;80.19;98803.31;7396016;19;20431;-66
2022/04/08 05:17:42;;;;;;;2.90;1.40;;;;;;;5.25;79.95;98831.06;7395557;19;20081;-65
2022/04/08 05:20:11;;;;;;;1.90;1.30;;;;;;;5.22;79.97;98832.03;7397580;19;20078;-65
2022/04/08 05:22:41;;;;;;;1.65;1.30;;;;;;;5.21;80.08;98823.34;7393952;19;20014;-65
2022/04/08 05:25:10;;;;;;;1.98;1.35;;;;;;;5.20;79.96;98839.84;7396189;19;20018;-65
2022/04/08 05:27:42;;;;;;;1.95;1.35;;;;;;;5.20;79.66;98842.44;7394925;19;20018;-65
2022/04/08 05:30:12;;;;;;;3.75;1.20;;;;;;;5.19;79.73;98845.97;7396544;19;20026;-64
2022/04/08 05:32:40;;;;;;;2.20;1.30;;;;;;;5.20;79.85;98844.22;7393631;19;20006;-64
2022/04/08 05:35:10;;;;;;;2.55;1.50;;;;;;;5.18;79.73;98861.59;7393737;19;20011;-65
2022/04/08 05:37:42;;;;;;;3.30;1.40;;;;;;;5.18;80.13;98844.25;7394689;19;20014;-64
2022/04/08 05:40:13;;;;;;;1.20;1.10;;;;;;;5.21;80.17;98853.72;7393454;19;20043;-65
2022/04/08 05:42:46;;;;;;;4.20;1.98;;;;;;;5.21;80.13;98854.56;7393677;19;20604;-65
2022/04/08 05:45:16;;;;;;;3.00;1.67;;;;;;;5.22;80.13;98863.22;7395894;19;20045;-65
2022/04/08 05:47:47;;;;;;;2.63;1.20;;;;;;;5.27;79.74;98881.25;7393993;19;20034;-65
2022/04/08 05:50:15;;;;;;;2.65;1.40;;;;;;;5.27;79.18;98900.34;7393898;19;20077;-65
2022/04/08 05:52:45;;;;;;;1.70;1.60;;;;;;;5.30;78.70;98873.41;7393253;19;20019;-64
2022/04/08 05:55:14;;;;;;;3.15;1.98;;;;;;;5.34;79.13;98875.00;7393413;19;20042;-64
2022/04/08 05:57:45;;;;;;;1.90;1.30;;;;;;;5.34;79.01;98896.63;7394383;19;20022;-65
2022/04/08 06:00:15;;;;;;;2.60;1.40;;;;;;;5.38;79.17;98893.06;7395151;19;20036;-65
2022/04/08 06:02:47;;;;;;;1.98;1.23;;;;;;;5.41;78.86;98891.25;7394313;19;20015;-65
2022/04/08 06:05:18;;;;;;;3.72;1.63;;;;;;;5.43;78.65;98900.72;7393516;19;20023;-65
2022/04/08 06:07:47;;;;;;;2.42;1.33;;;;;;;5.39;78.75;98891.31;7393438;19;20046;-66
2022/04/08 06:10:18;;;;;;;2.55;1.55;;;;;;;5.47;78.97;98898.88;7394715;19;20018;-66
2022/04/08 06:12:49;;;;;;;3.13;1.58;;;;;;;5.47;78.99;98904.94;7392830;19;20357;-65
2022/04/08 06:15:25;;;;;;;2.65;1.40;;;;;;;5.52;78.52;98925.59;7393435;19;20028;-65
2022/04/08 06:17:54;;;;;;;2.35;1.60;;;;;;;5.51;78.92;98919.56;7393175;19;20015;-65
2022/04/08 06:20:22;;;;;;;2.50;1.67;;;;;;;5.51;79.59;98916.94;7394351;19;20339;-66
2022/04/08 06:22:51;;;;;;;4.45;2.00;;;;;;;5.48;79.44;98924.81;7392804;19;20099;-64
2022/04/08 06:25:23;;;;;;;3.80;2.03;;;;;;;5.47;79.36;98927.47;7393949;19;20019;-66
2022/04/08 06:28:02;;;;;;;4.97;1.70;;;;;;;5.43;78.20;98951.88;7391789;19;20019;-65
2022/04/08 06:30:31;;;;;;;2.90;1.23;;;;;;;5.41;78.16;98931.13;7390269;19;20015;-66
2022/04/08 06:33:00;;;;;;;3.70;1.48;;;;;;;5.43;78.69;98946.69;7392972;19;20007;-65
2022/04/08 06:35:28;;;;;;;2.50;1.27;;;;;;;5.45;78.47;98950.09;7393048;19;20482;-66
2022/04/08 06:38:01;;;;;;;4.32;1.75;;;;;;;5.46;77.14;98955.25;7393013;19;20018;-65
2022/04/08 06:40:32;;;;;;;1.97;1.07;;;;;;;5.50;77.00;98956.03;7394230;19;20366;-66
2022/04/08 06:43:03;;;;;;;2.50;1.67;;;;;;;5.53;75.79;98958.53;7394239;19;20425;-66
2022/04/08 06:45:31;;;;;;;3.95;1.55;;;;;;;5.58;76.63;98956.63;7394462;19;20036;-65
2022/04/08 06:47:59;;;;;;;2.00;1.42;;;;;;;5.61;77.24;98951.34;7391641;19;20391;-65
2022/04/08 06:50:29;;;;;;;3.63;2.00;;;;;;;5.64;77.45;98961.66;7393841;19;20039;-65
2022/04/08 06:53:00;;;;;;;4.68;2.00;;;;;;;5.67;77.83;98965.91;7393576;19;20502;-65
2022/04/08 06:55:29;;;;;;;4.20;2.25;;;;;;;5.67;77.83;98966.78;7394564;19;20011;-66
2022/04/08 06:57:59;;;;;;;4.60;2.72;;;;;;;5.69;78.33;98967.56;7392974;19;20019;-65
2022/04/08 07:00:30;;;;;;;5.55;3.08;;;;;;;5.70;78.24;98977.09;7391734;19;20514;-65
2022/04/08 07:02:58;;;;;;;4.43;2.80;;;;;;;5.73;78.82;98970.09;7392155;19;20019;-65
2022/04/08 07:05:28;;;;;;;3.22;2.90;;;;;;;5.76;79.53;98996.00;7393435;19;20506;-65
2022/04/08 07:07:57;;;;;;;4.53;3.50;;;;;;;5.75;79.99;98989.97;7392225;19;20418;-65
2022/04/08 07:10:25;;;;;;;4.55;3.38;;;;;;;5.67;79.81;98997.13;7391629;19;20478;-64
2022/04/08 07:12:53;;;;;;;7.18;3.72;;;;;;;5.56;80.19;98987.06;7391672;19;20019;-64
2022/04/08 07:15:21;;;;;;;5.22;3.17;;;;;;;5.50;80.27;98987.25;7391066;19;20035;-65
2022/04/08 07:17:52;;;;;;;6.18;3.28;;;;;;;5.45;79.97;99021.19;7392305;19;20035;-65
2022/04/08 07:20:20;;;;;;;4.25;2.63;;;;;;;5.44;79.29;99003.00;7393750;19;20026;-65
2022/04/08 07:22:49;;;;;;;4.20;2.55;;;;;;;5.44;79.33;98992.63;7390986;19;20022;-65
2022/04/08 07:25:18;;;;;;;3.47;2.40;;;;;;;5.44;78.47;98992.63;7393448;19;20042;-65
2022/04/08 07:27:48;;;;;;;2.47;1.70;;;;;;;5.46;79.00;98996.88;7391214;19;20105;-65
2022/04/08 07:30:17;;;;;;;1.95;1.80;;;;;;;5.47;78.68;99006.38;7389774;19;20051;-66
2022/04/08 07:32:48;;;;;;;2.80;2.20;;;;;;;5.46;79.48;99035.03;7389412;19;20015;-65
2022/04/08 07:35:19;;;;;;;4.00;1.13;;;;;;;4.88;78.83;99124.91;7391231;19;20018;-64
2022/04/08 07:37:47;;;;;;;2.65;1.35;;;;;;;4.21;81.63;99080.63;7390942;19;20022;-66
2022/04/08 07:40:16;;;;;;;2.30;1.00;;;;;;;3.58;84.02;99103.53;7392574;19;20032;-64
2022/04/08 07:42:44;;;;;;;5.40;2.30;;;;;;;3.18;85.93;99105.13;7390129;19;20035;-63
2022/04/08 07:45:13;;;;;;;3.30;1.17;;;;;;;2.87;87.81;99097.88;7395981;19;20019;-63
2022/04/08 07:47:42;;;;;;;4.40;1.05;;;;;;;2.67;90.07;99102.53;7396889;19;20050;-63
2022/04/08 07:50:12;;;;;;;2.15;1.67;;;;;;;2.56;91.41;99085.41;7399494;19;20018;-64
2022/04/08 07:52:43;;;;;;;3.33;1.80;;;;;;;2.51;90.88;99091.56;7399327;19;20031;-63
2022/04/08 07:55:12;;;;;;;1.95;1.42;;;;;;;2.48;93.25;99112.31;7400408;19;20031;-63
2022/04/08 07:57:48;;;;;;;4.55;1.40;;;;;;;2.48;94.23;99097.63;7396737;19;20031;-63
2022/04/08 08:00:19;;;;;;;3.03;1.95;;;;;;;2.51;95.35;99107.94;7399352;19;20015;-62
2022/04/08 08:02:48;;;;;;;4.40;2.40;;;;;;;2.56;95.57;99110.47;7396851;19;20526;-64
2022/04/08 08:05:16;;;;;;;4.78;2.17;;;;;;;2.66;97.63;99126.72;7396960;19;20011;-63
2022/04/08 08:07:52;;;;;;;4.20;2.30;;;;;;;2.74;97.43;99130.91;7395909;19;20388;-63
2022/04/08 08:10:21;;;;;;;4.05;2.42;;;;;;;2.82;97.46;99123.00;7397807;19;20031;-63
2022/04/08 08:12:50;;;;;;;4.53;2.65;;;;;;;2.93;98.54;99123.69;7396632;19;20035;-64
2022/04/08 08:15:19;;;;;;;5.15;3.08;;;;;;;3.05;98.53;99127.78;7398941;19;20031;-64
2022/04/08 08:17:48;;;;;;;5.38;2.80;;;;;;;3.19;98.20;99118.94;7396009;19;20015;-64
2022/04/08 08:20:18;;;;;;;6.70;2.33;;;;;;;3.32;96.43;99130.78;7396172;19;20014;-63
2022/04/08 08:22:47;;;;;;;9.30;1.95;;;;;;;3.45;96.41;99125.38;7398815;19;20019;-64
2022/04/08 08:25:18;;;;;;;9.25;1.95;;;;;;;3.54;92.64;99120.88;7395769;19;20022;-63
2022/04/08 08:27:49;;;;;;;6.95;1.50;;;;;;;3.72;89.78;99155.97;7395825;19;20035;-61
2022/04/08 08:30:19;;;;;;;4.53;1.52;;;;;;;3.81;86.05;99141.97;7397805;19;20027;-64
2022/04/08 08:32:49;;;;;;;9.52;1.30;;;;;;;3.87;83.35;99122.84;7394823;19;20028;-64
2022/04/08 08:35:19;;;;;;;5.43;1.08;;;;;;;3.95;82.97;99114.91;7397615;19;20032;-65
2022/04/08 08:37:49;;;;;;;6.68;1.40;;;;;;;4.02;85.55;99138.09;7395445;19;20014;-64
2022/04/08 08:40:21;;;;;;;6.05;1.80;;;;;;;4.11;81.80;99126.66;7396182;19;20112;-65
2022/04/08 08:42:50;;;;;;;7.32;1.38;;;;;;;4.18;81.95;99133.44;7395237;19;20490;-64
2022/04/08 08:45:19;;;;;;;8.85;1.38;;;;;;;4.30;79.04;99142.69;7397752;19;20019;-64
2022/04/08 08:47:52;;;;;;;6.75;1.33;;;;;;;4.42;78.48;99138.97;7395447;19;20015;-65
2022/04/08 08:50:20;;;;;;;7.80;1.23;;;;;;;4.53;78.75;99156.94;7396982;19;20029;-64
2022/04/08 08:52:52;;;;;;;13.23;1.52;;;;;;;4.65;74.57;99154.06;7397124;19;20036;-64
2022/04/08 08:55:23;;;;;;;5.75;1.50;;;;;;;4.71;75.94;99164.31;7396756;19;20015;-65
2022/04/08 08:57:52;;;;;;;8.45;1.67;;;;;;;4.78;77.86;99146.81;7395646;19;20063;-65
2022/04/08 09:00:23;;;;;;;11.57;2.90;;;;;;;4.92;75.96;99149.09;7397337;19;20035;-65
2022/04/08 09:02:52;;;;;;;8.43;1.42;;;;;;;5.06;72.70;99170.38;7395417;19;20355;-65
2022/04/08 09:05:22;;;;;;;6.03;0.90;;;;;;;5.18;72.37;99181.38;7397269;19;20010;-65
2022/04/08 09:07:58;;;;;;;7.97;1.75;;;;;;;5.28;69.18;99167.28;7396178;19;20029;-64
2022/04/08 09:10:35;;;;;;;6.97;1.42;;;;;;;5.41;73.30;99159.13;7394989;19;20126;-65
2022/04/08 09:13:05;;;;;;;6.20;1.17;;;;;;;5.51;71.91;99160.59;7396577;19;20019;-65
2022/04/08 09:15:34;;;;;;;8.43;1.42;;;;;;;5.70;69.37;99155.78;7396338;19;20024;-66
2022/04/08 09:18:10;;;;;;;4.97;1.20;;;;;;;5.82;66.13;99171.03;7394953;19;20015;-64
2022/04/08 09:20:44;;;;;;;7.22;1.42;;;;;;;5.89;65.92;99179.56;7395857;19;20015;-65
2022/04/08 09:23:13;;;;;;;5.90;1.20;;;;;;;5.96;64.50;99144.63;7396065;19;20074;-65
2022/04/08 09:25:44;;;;;;;8.93;1.20;;;;;;;6.05;63.81;99179.16;7393900;19;20348;-65
2022/04/08 09:28:15;;;;;;;4.43;1.20;;;;;;;6.13;62.65;99211.91;7394956;19;20022;-65
2022/04/08 09:30:52;;;;;;;14.05;1.98;;;;;;;6.16;63.10;99158.88;7397600;19;20014;-65
2022/04/08 09:33:23;;;;;;;8.10;0.93;;;;;;;6.23;64.62;99147.38;7396107;19;20048;-65
2022/04/08 09:35:52;;;;;;;9.05;2.10;;;;;;;6.34;65.39;99150.53;7395603;19;20018;-65
2022/04/08 09:38:22;;;;;;;3.55;0.90;;;;;;;6.48;62.49;99178.75;7393762;19;20022;-65
2022/04/08 09:40:52;;;;;;;6.32;1.65;;;;;;;6.56;61.64;99181.13;7394945;19;20019;-65
2022/04/08 09:43:20;;;;;;;6.40;1.40;;;;;;;6.59;62.64;99156.75;7394975;19;20019;-64
2022/04/08 09:45:49;;;;;;;2.80;1.10;;;;;;;6.61;64.25;99163.59;7395159;19;20486;-65
2022/04/08 09:48:17;;;;;;;5.22;1.10;;;;;;;6.63;61.71;99184.41;7392550;19;20022;-65
2022/04/08 09:50:51;;;;;;;3.40;1.00;;;;;;;6.56;63.00;99195.91;7393842;19;20386;-66
2022/04/08 09:53:24;;;;;;;6.47;1.30;;;;;;;6.53;63.00;99165.56;7395035;19;20019;-65
2022/04/08 09:55:55;;;;;;;2.05;1.00;;;;;;;6.50;64.32;99158.72;7393074;19;20483;-68
2022/04/08 09:58:27;;;;;;;6.93;1.58;;;;;;;6.56;63.81;99156.81;7392626;19;20043;-65
2022/04/08 10:00:56;;;;;;;10.57;1.65;;;;;;;6.55;62.69;99174.22;7392681;19;20018;-65
2022/04/08 10:03:24;;;;;;;8.60;1.40;;;;;;;6.59;63.29;99154.97;7392155;19;20444;-65
2022/04/08 10:05:53;;;;;;;2.40;0.90;;;;;;;6.63;63.06;99156.56;7390515;19;20018;-65
2022/04/08 10:08:21;;;;;;;4.57;1.42;;;;;;;6.65;62.97;99156.56;7392181;19;20094;-66
2022/04/08 10:11:02;;;;;;;4.82;1.20;;;;;;;6.65;63.03;99173.03;7393850;19;20424;-65
2022/04/08 10:13:46;;;;;;;2.55;0.88;;;;;;;6.64;62.56;99162.66;7395555;19;20102;-66
2022/04/08 10:16:25;;;;;;;7.97;1.40;;;;;;;6.61;64.04;99166.22;7394706;19;20035;-66
2022/04/08 10:18:54;;;;;;;6.13;2.17;;;;;;;6.66;61.60;99182.56;7392180;19;20357;-66
2022/04/08 10:21:22;;;;;;;8.57;2.53;;;;;;;6.68;59.38;99175.56;7394048;19;20108;-65
2022/04/08 10:23:53;;;;;;;6.85;2.38;;;;;;;6.77;59.36;99163.97;7391084;19;20011;-65
2022/04/08 10:26:26;;;;;;;2.63;1.23;;;;;;;6.86;58.31;99165.44;7392954;19;20078;-66
2022/04/08 10:28:57;;;;;;;8.25;1.73;;;;;;;6.93;56.58;99168.72;7389736;19;20027;-65
2022/04/08 10:31:26;;;;;;;6.43;1.13;;;;;;;6.98;61.19;99157.22;7391401;19;20149;-64
2022/04/08 10:33:58;;;;;;;2.85;1.00;;;;;;;7.05;59.35;99154.41;7391722;19;20023;-65
2022/04/08 10:36:34;;;;;;;5.05;0.95;;;;;;;7.15;58.97;99161.03;7393653;19;20025;-64
2022/04/08 10:39:16;;;;;;;3.25;0.80;;;;;;;7.23;59.03;99159.03;7392455;19;20023;-65
2022/04/08 10:41:52;;;;;;;5.18;1.08;;;;;;;7.36;59.63;99151.63;7394071;19;20028;-65
2022/04/08 10:44:33;;;;;;;4.63;1.33;;;;;;;7.46;56.88;99160.00;7393589;19;20510;-65
2022/04/08 10:47:03;;;;;;;6.65;1.17;;;;;;;7.47;56.14;99149.50;7391972;19;20029;-65
2022/04/08 10:49:33;;;;;;;1.85;0.93;;;;;;;7.46;58.88;99146.97;7392139;19;20039;-65
2022/04/08 10:52:01;;;;;;;6.78;1.30;;;;;;;7.48;59.16;99152.97;7390664;19;20486;-65
2022/04/08 10:54:36;;;;;;;6.47;1.65;;;;;;;7.48;56.71;99152.97;7392528;19;20018;-65
2022/04/08 10:57:07;;;;;;;7.15;1.52;;;;;;;7.46;58.61;99141.75;7391777;19;20462;-65
2022/04/08 10:59:36;;;;;;;5.22;0.95;;;;;;;7.39;55.75;99161.13;7391061;19;20470;-65
2022/04/08 11:02:10;;;;;;;3.85;1.05;;;;;;;7.39;59.73;99153.28;7393144;19;20031;-65
2022/04/08 11:04:39;;;;;;;6.43;1.40;;;;;;;7.38;56.37;99160.28;7392568;19;20450;-65
2022/04/08 11:07:08;;;;;;;4.93;0.95;;;;;;;7.40;57.20;99141.94;7390891;19;20023;-65
2022/04/08 11:09:37;;;;;;;3.30;1.00;;;;;;;7.41;56.64;99126.25;7390874;19;20015;-66
2022/04/08 11:12:09;;;;;;;4.40;0.98;;;;;;;7.42;57.89;99130.56;7390272;19;20334;-64
2022/04/08 11:14:38;;;;;;;4.88;1.40;;;;;;;7.43;56.56;99131.41;7392711;19;20310;-65
2022/04/08 11:17:06;;;;;;;8.93;1.77;;;;;;;7.47;57.08;99123.41;7391412;19;20019;-66
2022/04/08 11:19:34;;;;;;;6.68;1.17;;;;;;;7.57;57.65;99128.31;7396697;19;20022;-66
2022/04/08 11:22:02;;;;;;;7.70;1.88;;;;;;;7.67;59.29;99121.84;7394534;19;20037;-65
2022/04/08 11:24:36;;;;;;;6.68;1.30;;;;;;;7.74;56.42;99125.94;7395718;19;20018;-66
2022/04/08 11:27:08;;;;;;;4.32;1.13;;;;;;;7.78;54.74;99118.84;7396240;19;20047;-66
2022/04/08 11:29:39;;;;;;;7.45;1.08;;;;;;;7.85;56.01;99130.78;7396430;19;20090;-66
2022/04/08 11:32:12;;;;;;;5.15;1.23;;;;;;;7.86;54.39;99103.78;7396817;19;20014;-65
2022/04/08 11:34:41;;;;;;;8.45;1.50;;;;;;;7.88;57.58;99107.16;7398200;19;20031;-66
2022/04/08 11:37:09;;;;;;;3.40;1.70;;;;;;;7.93;56.42;99099.19;7395753;19;20018;-66
2022/04/08 11:39:40;;;;;;;6.00;1.23;;;;;;;7.97;57.21;99106.84;7399236;19;20022;-65
2022/04/08 11:42:11;;;;;;;2.72;1.02;;;;;;;7.94;51.74;99120.00;7399102;19;20018;-66
2022/04/08 11:44:40;;;;;;;5.68;1.40;;;;;;;7.88;51.72;99130.66;7395601;19;20364;-65
2022/04/08 11:47:09;;;;;;;5.13;1.63;;;;;;;7.81;52.95;99100.50;7398530;19;20018;-65
2022/04/08 11:49:38;;;;;;;5.65;1.00;;;;;;;7.73;51.28;99115.56;7398882;19;20015;-65
2022/04/08 11:52:07;;;;;;;6.22;1.73;;;;;;;7.69;52.12;99098.31;7396869;19;20018;-66
2022/04/08 11:54:40;;;;;;;5.93;1.60;;;;;;;7.65;50.41;99127.13;7399291;19;20019;-65